PARC

Details ICAO PARC (ARC)
Name Arctic_Village
Region USA (Alaska)
Timezone America/Anchorage (UTC-8.0)
Plans Departing 10
Arriving 11
Stats Elevation 2,084 ft / 635 m (AMSL)
Location 68.115838° -145.574587°
Runways 1
Magnetic Variation 18.554° E
Sunrise 2018-05-21 10:45:20 UTC / 2018-05-21 02:45:20 Local
Sunset 2018-05-22 08:35:22 UTC / 2018-05-22 00:35:22 Local
Advertisement - Login to hide

Runways

ID Width Length Bearing (true) Bearing (mag) Surface Threshold Offset Overrun Length
02 75 ft / 23 m 4,505 ft / 1,373 m 44.99° 26.44° Gravel 0 ft / 0 m 0 ft / 0 m
20 75 ft / 23 m 4,505 ft / 1,373 m 225.01° 206.46° Gravel 0 ft / 0 m 0 ft / 0 m

Map

Weather


0- 5 10 15 20 25 30 35+ Temperature / ° C

Clouds and Precipitation
Forecast for 2018-05-22 00:00 UTC. Updated 3 hours ago

Ground ~20,000 ft ~40,000 ft Winds

METAR

PARC 220156Z AUTO 30009KT 10SM -RA OVC024 05/03 A2949 RMK AO2 SLP022 P0003 T00500033

TAF

Not found

Frequencies

Recorded 135.75 MHz AWOS
Unicom 122.90 MHz ARCTIC_VILLAGE MULT
Warning: Do not use this data for real-world aviation or navigation. No guarantee of current accuracy is given.